Flight Track Log - Related Links

Times and Time Zones

All times are in EDT time to prevent confusion due to time zone crossing. See the PDT4325 flight status page for this flight to view local times or setup timezone preferences in your user account.

Time Position Orientation Groundspeed Altitude Reporting Facility
EDT Latitude Longitude Course Direction KTS MPH feet Rate Location/Type
Fri 02:08:15 PM 42.4800 -76.4473 317° Northwest  Level FlightAware Approximate
Fri 02:09:15 PM 42.4265 -76.4219 328° Northwest  Level FlightAware Approximate
Fri 02:10:06 PM 42.5300 -76.5100 64° Northeast 114 131 3,500  Level New York Center
Fri 02:11:04 PM 42.5419 -76.4772 145° Southeast 142 163 5,200 1,714 Climbing New York Center
Fri 02:12:05 PM 42.5061 -76.4433 150° Southeast 111 128 6,900 1,350 Climbing New York Center
Fri 02:13:04 PM 42.4619 -76.4086 152° Southeast 155 178 7,900 857 Climbing New York Center
Fri 02:14:04 PM 42.4056 -76.3672 146° Southeast 207 238 8,600 545 Climbing New York Center
Fri 02:15:05 PM 42.3478 -76.3144 146° Southeast 241 277 9,000 197 Climbing New York Center
Fri 02:16:06 PM 42.2858 -76.2589 147° Southeast 261 300 9,000  Level New York Center
Fri 02:17:04 PM 42.2217 -76.2031 143° Southeast 266 306 9,000  Level New York Center
Fri 02:18:04 PM 42.1639 -76.1453 153° Southeast 266 306 9,000  Level New York Center
Fri 02:19:05 PM 42.0994 -76.1008 160° South 266 306 9,000  Level New York Center
Fri 02:20:06 PM 42.0300 -76.0672 160° South 261 300 9,000  Level New York Center
Fri 02:21:04 PM 41.9689 -76.0372 162° South 261 300 9,000  Level New York Center
Fri 02:22:06 PM 41.8994 -76.0067 159° South 261 300 9,000  Level New York Center
Fri 02:23:04 PM 41.8242 -75.9675 158° South 261 300 9,000  Level New York Center
Fri 02:24:05 PM 41.7572 -75.9317 157° South 261 300 9,000  Level New York Center
Fri 02:25:06 PM 41.6900 -75.8931 159° South 261 300 9,000 -202 Level New York Center
Fri 02:26:04 PM 41.6269 -75.8606 160° South 266 306 8,600 -504 Descending New York Center
Fri 02:27:05 PM 41.5472 -75.8211 161° South 271 312 8,000 -300 Descending New York Center
Fri 02:28:04 PM 41.4842 -75.7914 160° South 271 312 8,000  Level New York Center
Fri 02:29:04 PM 41.4167 -75.7589 162° South 271 312 8,000  Level New York Center
Fri 02:30:05 PM 41.3492 -75.7289 162° South 265 305 8,000  Level New York Center
Fri 02:31:05 PM 41.2797 -75.6989 161° South 259 298 8,000  Level New York Center
Fri 02:32:06 PM 41.2081 -75.6661 162° South 259 298 8,000  Level New York Center
Fri 02:33:43 PM 41.0972 -75.6175 162° South 256 295 8,000  Level FAA TRACON SMA TRACON (SMA)
Fri 02:34:23 PM 41.0481 -75.5961 163° South 256 295 8,000  Level FAA TRACON SMA TRACON (SMA)
Fri 02:35:03 PM 41.0042 -75.5781 160° South 256 295 8,000  Level FAA TRACON SMA TRACON (SMA)
Fri 02:35:44 PM 40.9608 -75.5575 160° South 257 296 8,000  Level FAA TRACON SMA TRACON (SMA)
Fri 02:36:23 PM 40.9169 -75.5367 160° South 260 299 8,000  Level FAA TRACON SMA TRACON (SMA)
Fri 02:37:03 PM 40.8672 -75.5122 162° South 261 300 8,000  Level FAA TRACON SMA TRACON (SMA)
Fri 02:37:43 PM 40.8231 -75.4931 162° South 262 302 8,000  Level FAA TRACON SMA TRACON (SMA)
Fri 02:38:23 PM 40.7747 -75.4728 162° South 262 302 8,000  Level FAA TRACON SMA TRACON (SMA)
Fri 02:39:03 PM 40.7317 -75.4539 183° South 263 303 8,000  Level FAA TRACON SMA TRACON (SMA)
Fri 02:39:43 PM 40.6844 -75.4572 196° South 236 272 8,000 -225 Level FAA TRACON SMA TRACON (SMA)
Fri 02:40:23 PM 40.6392 -75.4747 192° South 248 285 7,700 -675 Descending FAA TRACON SMA TRACON (SMA)
Fri 02:41:03 PM 40.5936 -75.4878 194° South 252 290 7,100 -975 Descending FAA TRACON SMA TRACON (SMA)
Fri 02:41:43 PM 40.5494 -75.5022 193° South 248 285 6,400 -1,050 Descending FAA TRACON SMA TRACON (SMA)
Fri 02:42:23 PM 40.5058 -75.5153 189° South 227 261 5,700 -900 Descending FAA TRACON SMA TRACON (SMA)
Fri 02:43:03 PM 40.4678 -75.5228 185° South 220 253 5,200 -525 Descending FAA TRACON SMA TRACON (SMA)
Fri 02:43:43 PM 40.4256 -75.5275 152° Southeast 226 260 5,000 -150 Descending FAA TRACON SMA TRACON (SMA)
Fri 02:44:23 PM 40.3847 -75.4989 143° Southeast 247 284 5,000  Level FAA TRACON SMA TRACON (SMA)
Fri 02:45:03 PM 40.3514 -75.4661 142° Southeast 242 278 5,000  Level FAA TRACON SMA TRACON (SMA)
Fri 02:45:43 PM 40.3150 -75.4294 144° Southeast 238 274 5,000  Level FAA TRACON SMA TRACON (SMA)
Fri 02:46:23 PM 40.2797 -75.3953 143° Southeast 233 268 5,000  Level FAA TRACON SMA TRACON (SMA)
Fri 02:47:03 PM 40.2475 -75.3631 144° Southeast 230 265 5,000 -75 Level FAA TRACON SMA TRACON (SMA)
Fri 02:47:43 PM 40.2119 -75.3286 142° Southeast 229 264 4,900 -375 Descending FAA TRACON SMA TRACON (SMA)
Fri 02:48:23 PM 40.1764 -75.2928 143° Southeast 230 265 4,500 -525 Descending FAA TRACON SMA TRACON (SMA)
Fri 02:49:03 PM 40.1447 -75.2611 141° Southeast 226 260 4,200 -375 Descending FAA TRACON SMA TRACON (SMA)
Fri 02:49:43 PM 40.1119 -75.2269 143° Southeast 223 257 4,000 -150 Descending FAA TRACON SMA TRACON (SMA)
Fri 02:50:23 PM 40.0792 -75.1944 144° Southeast 212 244 4,000  Level FAA TRACON SMA TRACON (SMA)
Fri 02:51:03 PM 40.0475 -75.1639 143° Southeast 228 262 4,000  Level FAA TRACON SMA TRACON (SMA)
Fri 02:51:43 PM 40.0119 -75.1294 143° Southeast 228 262 4,000  Level FAA TRACON SMA TRACON (SMA)
Fri 02:52:23 PM 39.9814 -75.0992 135° Southeast 214 246 4,000  Level FAA TRACON SMA TRACON (SMA)
Fri 02:53:03 PM 39.9528 -75.0617 68° East 214 246 4,000  Level FAA TRACON SMA TRACON (SMA)
Fri 02:53:43 PM 39.9661 -75.0183 59° Northeast 201 231 4,000  Level FAA TRACON SMA TRACON (SMA)
Fri 02:54:23 PM 39.9842 -74.9783 139° Southeast 207 238 4,000  Level FAA TRACON SMA TRACON (SMA)
Fri 02:55:03 PM 39.9539 -74.9442 231° Southwest 195 224 4,000  Level FAA TRACON SMA TRACON (SMA)
Fri 02:55:43 PM 39.9336 -74.9772 255° West 183 211 4,000 -450 Level FAA TRACON SMA TRACON (SMA)
Fri 02:56:23 PM 39.9256 -75.0178 256° West 182 209 3,400 -1,050 Descending FAA TRACON SMA TRACON (SMA)
Fri 02:57:03 PM 39.9161 -75.0669 256° West 194 223 2,600 -1,200 Descending FAA TRACON SMA TRACON (SMA)

Login

Don't have an account? Register now (free) for customized features, flight alerts, and more!